Time;durP1;ratioP1;P1;durP2;ratioP2;P2;SDS_P1;SDS_P2;PMS_P1;PMS_P2;Temp;Humidity;BMP_temperature;BMP_pressure;BME280_temperature;BME280_humidity;BME280_pressure;Samples;Min_cycle;Max_cycle;Signal;HPM_P1;HPM_P2
2021/04/26 00:00:30;;;;;;;11.23;2.92;;;3.90;78.80;;;;;;4984276;28;20482;-49
2021/04/26 00:02:58;;;;;;;11.60;3.00;;;3.90;79.10;;;;;;4983760;28;20436;-51
2021/04/26 00:05:25;;;;;;;9.23;2.75;;;3.80;79.70;;;;;;4990968;28;20125;-50
2021/04/26 00:07:50;;;;;;;12.02;3.08;;;3.70;79.40;;;;;;4988587;28;20038;-51
2021/04/26 00:10:16;;;;;;;7.70;2.45;;;3.70;79.80;;;;;;4990154;28;20375;-48
2021/04/26 00:12:43;;;;;;;8.93;3.00;;;3.60;80.00;;;;;;4990466;28;20046;-50
2021/04/26 00:15:17;;;;;;;10.40;3.15;;;3.60;80.10;;;;;;4989354;28;20043;-52
2021/04/26 00:17:44;;;;;;;8.68;3.13;;;3.60;79.80;;;;;;4990422;28;20126;-48
2021/04/26 00:20:11;;;;;;;9.75;2.83;;;3.50;79.80;;;;;;4988622;28;20034;-51
2021/04/26 00:22:37;;;;;;;9.20;3.10;;;3.50;80.40;;;;;;4990345;28;20518;-51
2021/04/26 00:25:06;;;;;;;9.75;3.20;;;3.50;80.30;;;;;;4990369;28;20402;-52
2021/04/26 00:27:34;;;;;;;9.02;3.22;;;3.50;80.40;;;;;;4990580;28;20080;-52
2021/04/26 00:30:00;;;;;;;9.82;3.17;;;3.40;80.10;;;;;;4986698;28;20034;-52
2021/04/26 00:32:26;;;;;;;8.32;2.75;;;3.40;80.70;;;;;;4980042;28;20038;-49
2021/04/26 00:34:52;;;;;;;11.52;3.00;;;3.30;80.80;;;;;;4989736;28;20092;-50
2021/04/26 00:37:17;;;;;;;9.73;2.70;;;3.30;80.80;;;;;;4991135;28;20047;-52
2021/04/26 00:39:43;;;;;;;12.95;3.38;;;3.30;80.60;;;;;;5007031;28;20049;-50
2021/04/26 00:42:09;;;;;;;9.38;2.83;;;3.30;80.90;;;;;;4989803;28;20050;-51
2021/04/26 00:44:36;;;;;;;12.52;3.72;;;3.30;81.00;;;;;;4983590;28;20046;-49
2021/04/26 00:47:02;;;;;;;8.35;3.13;;;3.30;81.30;;;;;;4994745;28;20100;-51
2021/04/26 00:49:28;;;;;;;10.25;3.17;;;3.30;81.60;;;;;;4985617;28;20047;-52
2021/04/26 00:51:53;;;;;;;6.80;2.97;;;3.30;81.60;;;;;;4990020;28;20076;-51
2021/04/26 00:54:19;;;;;;;7.85;3.00;;;3.30;82.00;;;;;;4982554;28;20490;-52
2021/04/26 00:56:45;;;;;;;10.02;3.47;;;3.30;82.10;;;;;;4983818;28;20099;-55
2021/04/26 00:59:11;;;;;;;14.30;3.10;;;3.20;82.50;;;;;;4992732;28;20057;-50
2021/04/26 01:01:36;;;;;;;7.32;2.85;;;3.30;82.50;;;;;;4990177;28;20049;-52
2021/04/26 01:04:02;;;;;;;6.47;3.03;;;3.30;82.70;;;;;;4989461;28;20046;-51
2021/04/26 01:06:28;;;;;;;5.75;2.40;;;3.20;82.50;;;;;;4987514;28;20124;-54
2021/04/26 01:08:54;;;;;;;8.25;2.60;;;3.20;83.40;;;;;;4990129;28;20133;-49
2021/04/26 01:11:25;;;;;;;9.73;3.33;;;3.20;82.90;;;;;;4989212;28;20050;-50
2021/04/26 01:14:12;;;;;;;9.52;3.10;;;3.20;82.70;;;;;;4989741;28;20043;-51
2021/04/26 01:16:56;;;;;;;8.07;3.50;;;3.20;82.90;;;;;;4987970;28;20043;-49
2021/04/26 01:19:51;;;;;;;13.02;3.90;;;3.20;83.00;;;;;;4989092;28;20045;-51
2021/04/26 01:22:39;;;;;;;8.80;3.13;;;3.20;83.30;;;;;;4981784;28;20434;-48
2021/04/26 01:25:17;;;;;;;7.43;2.78;;;3.20;83.60;;;;;;4977844;28;20525;-52
2021/04/26 01:28:16;;;;;;;9.60;3.13;;;3.20;83.30;;;;;;4988485;28;20043;-52
2021/04/26 01:30:57;;;;;;;12.30;3.25;;;3.20;83.50;;;;;;4977497;28;20211;-48
2021/04/26 01:33:30;;;;;;;11.52;3.33;;;3.10;83.30;;;;;;4979457;28;20065;-52
2021/04/26 01:36:01;;;;;;;9.77;3.28;;;3.10;83.20;;;;;;4989840;28;20084;-50
2021/04/26 01:38:39;;;;;;;6.97;3.03;;;3.10;82.90;;;;;;4987969;28;20041;-50
2021/04/26 01:41:07;;;;;;;8.63;3.10;;;3.00;83.00;;;;;;4988917;28;20081;-52
2021/04/26 01:43:33;;;;;;;12.63;3.45;;;3.00;82.90;;;;;;4988544;28;20052;-50
2021/04/26 01:46:04;;;;;;;12.35;3.10;;;2.90;82.50;;;;;;4988993;28;20055;-52
2021/04/26 01:48:34;;;;;;;13.40;3.22;;;3.20;83.00;;;;;;4987378;28;20034;-49
2021/04/26 01:51:01;;;;;;;9.88;3.17;;;2.90;83.10;;;;;;4989305;28;20080;-49
2021/04/26 01:53:28;;;;;;;11.25;3.38;;;2.80;83.20;;;;;;4987722;28;20047;-49
2021/04/26 01:55:58;;;;;;;15.13;3.90;;;2.80;83.30;;;;;;4984623;28;20046;-50
2021/04/26 01:58:25;;;;;;;12.00;3.25;;;2.70;83.20;;;;;;4979038;28;20043;-51
2021/04/26 02:00:51;;;;;;;10.60;3.33;;;2.70;83.10;;;;;;4984256;28;20501;-51
2021/04/26 02:03:22;;;;;;;7.97;2.78;;;2.70;83.20;;;;;;4988872;28;20445;-49
2021/04/26 02:05:51;;;;;;;14.38;3.53;;;2.70;83.60;;;;;;4983297;28;20085;-51
2021/04/26 02:08:17;;;;;;;7.75;3.03;;;2.70;83.60;;;;;;4981529;28;20034;-49
2021/04/26 02:10:43;;;;;;;9.15;3.35;;;2.70;84.00;;;;;;4988319;28;20450;-49
2021/04/26 02:13:09;;;;;;;11.82;3.38;;;2.70;83.90;;;;;;4982378;28;20487;-49
2021/04/26 02:15:37;;;;;;;9.00;3.40;;;2.70;84.00;;;;;;4984475;28;20046;-50
2021/04/26 02:18:04;;;;;;;14.40;3.50;;;2.70;84.10;;;;;;4980937;28;20046;-49
2021/04/26 02:20:30;;;;;;;10.35;3.25;;;2.70;84.70;;;;;;4988058;28;20081;-49
2021/04/26 02:22:55;;;;;;;10.48;3.75;;;2.70;84.50;;;;;;4988664;28;20065;-49
2021/04/26 02:25:21;;;;;;;11.35;3.70;;;2.70;84.40;;;;;;4980891;28;20035;-50
2021/04/26 02:27:48;;;;;;;10.93;3.67;;;2.70;84.40;;;;;;4986740;28;20105;-49
2021/04/26 02:30:16;;;;;;;9.68;3.75;;;2.70;84.20;;;;;;4978784;28;20043;-49
2021/04/26 02:32:47;;;;;;;13.00;3.92;;;2.70;84.40;;;;;;4993890;28;20041;-51
2021/04/26 02:35:23;;;;;;;11.85;3.60;;;2.70;84.80;;;;;;4986856;28;20049;-49
2021/04/26 02:37:59;;;;;;;13.48;3.65;;;2.60;84.90;;;;;;4988295;28;20042;-50
2021/04/26 02:40:27;;;;;;;12.55;4.00;;;2.70;84.30;;;;;;4994437;28;20053;-50
2021/04/26 02:42:55;;;;;;;11.73;3.50;;;2.60;84.50;;;;;;4988264;28;20104;-50
2021/04/26 02:45:28;;;;;;;11.20;3.28;;;2.60;84.40;;;;;;4994125;28;20083;-50
2021/04/26 02:47:55;;;;;;;7.28;3.05;;;2.60;84.50;;;;;;4987388;28;20050;-48
2021/04/26 02:50:24;;;;;;;13.98;4.15;;;2.60;84.40;;;;;;4981051;28;20168;-48
2021/04/26 02:52:51;;;;;;;9.00;3.28;;;2.50;84.30;;;;;;4994674;28;20444;-49
2021/04/26 02:55:19;;;;;;;12.63;3.70;;;2.50;84.60;;;;;;4994306;28;20042;-49
2021/04/26 02:57:46;;;;;;;6.72;2.92;;;2.50;84.50;;;;;;4980182;28;20043;-47
2021/04/26 03:00:15;;;;;;;11.30;3.55;;;2.40;84.70;;;;;;4988107;28;20513;-50
2021/04/26 03:02:43;;;;;;;11.05;3.80;;;2.40;84.70;;;;;;4978297;28;20038;-48
2021/04/26 03:05:10;;;;;;;8.48;3.22;;;2.40;85.10;;;;;;4972575;28;20049;-49
2021/04/26 03:07:37;;;;;;;12.38;4.00;;;2.40;84.80;;;;;;4986137;28;20379;-48
2021/04/26 03:10:08;;;;;;;9.73;3.33;;;2.30;85.20;;;;;;4988135;28;20184;-48
2021/04/26 03:12:38;;;;;;;8.68;3.42;;;2.40;85.60;;;;;;4983780;28;20043;-49
2021/04/26 03:15:12;;;;;;;12.00;3.83;;;2.40;85.60;;;;;;4986729;28;20529;-49
2021/04/26 03:17:40;;;;;;;13.88;3.50;;;2.40;85.60;;;;;;4987689;28;20455;-50
2021/04/26 03:20:12;;;;;;;13.48;3.67;;;2.40;85.90;;;;;;4979696;28;20047;-49
2021/04/26 03:22:40;;;;;;;9.75;3.65;;;2.50;85.90;;;;;;4986869;28;20069;-50
2021/04/26 03:25:08;;;;;;;9.30;3.10;;;2.50;86.00;;;;;;4990750;28;20100;-49
2021/04/26 03:27:34;;;;;;;8.93;3.40;;;2.50;86.30;;;;;;4980437;28;20048;-50
2021/04/26 03:30:01;;;;;;;13.10;3.40;;;2.50;85.90;;;;;;4991554;28;20498;-49
2021/04/26 03:32:28;;;;;;;10.82;3.42;;;2.50;86.10;;;;;;4992533;28;20204;-49
2021/04/26 03:34:54;;;;;;;11.45;3.40;;;2.50;85.90;;;;;;4991174;28;20121;-48
2021/04/26 03:37:20;;;;;;;14.70;5.05;;;2.50;86.00;;;;;;4991226;28;20505;-49
2021/04/26 03:39:47;;;;;;;12.73;3.58;;;2.40;85.70;;;;;;4990030;28;20043;-49
2021/04/26 03:42:17;;;;;;;7.45;3.17;;;2.40;86.20;;;;;;4990470;28;20125;-47
2021/04/26 03:44:44;;;;;;;8.27;3.38;;;2.40;85.70;;;;;;4991003;28;20051;-50
2021/04/26 03:47:10;;;;;;;10.90;3.25;;;2.40;85.60;;;;;;4990431;28;20038;-50
2021/04/26 03:49:36;;;;;;;10.80;2.97;;;2.30;85.90;;;;;;4990499;28;20563;-49
2021/04/26 03:52:03;;;;;;;10.07;3.20;;;2.30;85.90;;;;;;4990198;28;20048;-49
2021/04/26 03:54:29;;;;;;;15.23;3.78;;;2.40;86.10;;;;;;4991147;28;20077;-50
2021/04/26 03:56:55;;;;;;;11.93;3.40;;;2.40;86.20;;;;;;4982183;28;20065;-50
2021/04/26 03:59:20;;;;;;;5.93;3.08;;;2.50;86.70;;;;;;4988579;28;20456;-50
2021/04/26 04:01:46;;;;;;;8.82;3.20;;;2.50;86.60;;;;;;4990574;28;20038;-49
2021/04/26 04:04:12;;;;;;;9.50;2.95;;;2.50;87.10;;;;;;4988719;28;20118;-49
2021/04/26 04:06:37;;;;;;;10.55;3.20;;;2.50;86.70;;;;;;4990748;28;20065;-50
2021/04/26 04:09:05;;;;;;;9.98;3.00;;;2.40;86.60;;;;;;4988756;28;20121;-50
2021/04/26 04:11:31;;;;;;;9.77;3.40;;;2.40;86.50;;;;;;4988619;28;20079;-47
2021/04/26 04:13:56;;;;;;;9.05;3.10;;;2.40;87.10;;;;;;4989894;28;20078;-51
2021/04/26 04:16:23;;;;;;;10.38;3.33;;;2.40;86.90;;;;;;4998128;28;20080;-48
2021/04/26 04:18:49;;;;;;;11.00;3.22;;;2.40;86.50;;;;;;4989628;28;20038;-49
2021/04/26 04:21:15;;;;;;;9.40;3.40;;;2.30;86.20;;;;;;4986072;28;20491;-49
2021/04/26 04:23:42;;;;;;;8.52;3.20;;;2.30;86.20;;;;;;4985234;28;20035;-49
2021/04/26 04:26:08;;;;;;;9.00;3.20;;;2.20;86.20;;;;;;4990272;28;20042;-49
2021/04/26 04:28:34;;;;;;;10.98;3.40;;;2.20;86.90;;;;;;4989554;28;20440;-51
2021/04/26 04:31:00;;;;;;;12.90;3.50;;;2.20;86.70;;;;;;4989639;28;20493;-50
2021/04/26 04:33:26;;;;;;;11.05;3.80;;;2.20;87.20;;;;;;4986607;28;20068;-49
2021/04/26 04:35:52;;;;;;;7.63;3.20;;;2.20;88.20;;;;;;4989702;28;20043;-50
2021/04/26 04:38:19;;;;;;;7.80;3.38;;;2.20;87.00;;;;;;4989323;28;20049;-49
2021/04/26 04:40:45;;;;;;;9.65;3.70;;;2.20;86.70;;;;;;5018675;28;20504;-50
2021/04/26 04:43:11;;;;;;;10.15;3.72;;;2.20;87.20;;;;;;5018590;28;20046;-49
2021/04/26 04:45:36;;;;;;;9.05;3.67;;;2.20;87.20;;;;;;4989968;28;20410;-50
2021/04/26 04:48:03;;;;;;;8.63;3.33;;;2.10;87.20;;;;;;4983801;28;20089;-49
2021/04/26 04:50:29;;;;;;;9.48;3.60;;;2.20;87.00;;;;;;4986380;28;20050;-49
2021/04/26 04:52:55;;;;;;;9.32;3.30;;;2.30;87.90;;;;;;4990215;28;20046;-50
2021/04/26 04:55:21;;;;;;;8.65;3.95;;;2.40;88.60;;;;;;4989500;28;20062;-50
2021/04/26 04:57:47;;;;;;;9.65;3.10;;;2.40;88.30;;;;;;4989947;28;20093;-50
2021/04/26 05:00:13;;;;;;;8.05;3.38;;;2.50;88.60;;;;;;4988667;28;20087;-49
2021/04/26 05:02:39;;;;;;;8.80;3.60;;;2.50;88.70;;;;;;4988344;28;20112;-51
2021/04/26 05:05:05;;;;;;;11.43;3.70;;;2.60;89.30;;;;;;4987606;28;20130;-49
2021/04/26 05:07:31;;;;;;;8.05;3.58;;;2.70;89.50;;;;;;4988254;28;20042;-48
2021/04/26 05:09:56;;;;;;;8.27;3.90;;;2.80;88.70;;;;;;4981003;28;20050;-49
2021/04/26 05:12:22;;;;;;;7.47;3.33;;;2.90;88.80;;;;;;4984018;28;20414;-50
2021/04/26 05:14:49;;;;;;;11.05;3.90;;;3.10;88.30;;;;;;4987505;28;20080;-49
2021/04/26 05:17:16;;;;;;;12.02;3.63;;;3.20;87.90;;;;;;4989244;28;20049;-49
2021/04/26 05:19:42;;;;;;;10.52;3.53;;;3.30;87.40;;;;;;4988053;28;20038;-51
2021/04/26 05:22:08;;;;;;;8.20;3.17;;;3.40;86.70;;;;;;4980915;28;20415;-50
2021/04/26 05:24:36;;;;;;;10.88;3.58;;;3.60;86.50;;;;;;4986971;28;20046;-49
2021/04/26 05:27:01;;;;;;;8.35;3.13;;;3.70;85.90;;;;;;4986424;28;20043;-49
2021/04/26 05:29:27;;;;;;;10.77;3.50;;;3.90;85.40;;;;;;4977633;28;20054;-50
2021/04/26 05:31:53;;;;;;;8.30;3.10;;;4.00;84.80;;;;;;4980916;28;20045;-50
2021/04/26 05:34:18;;;;;;;9.90;3.47;;;4.00;84.70;;;;;;4987049;28;20054;-49
2021/04/26 05:36:44;;;;;;;11.23;3.70;;;4.20;84.90;;;;;;4983565;28;20086;-50
2021/04/26 05:39:10;;;;;;;7.40;3.35;;;4.20;84.30;;;;;;4977398;28;20467;-49
2021/04/26 05:41:36;;;;;;;12.52;3.45;;;4.40;84.20;;;;;;5021967;28;20052;-51
2021/04/26 05:44:02;;;;;;;11.68;3.40;;;4.60;83.60;;;;;;5031655;28;20501;-50
2021/04/26 05:46:27;;;;;;;6.93;3.42;;;4.90;83.00;;;;;;4988075;28;20034;-50
2021/04/26 05:48:53;;;;;;;7.53;3.55;;;5.30;82.10;;;;;;4986380;28;20045;-49
2021/04/26 05:51:19;;;;;;;11.50;3.20;;;5.70;80.10;;;;;;4988691;28;20046;-50
2021/04/26 05:53:44;;;;;;;8.95;3.53;;;6.40;77.90;;;;;;4995726;28;20092;-49
2021/04/26 05:56:10;;;;;;;7.13;3.15;;;6.90;75.80;;;;;;5024703;28;20039;-50
2021/04/26 05:58:36;;;;;;;10.68;3.05;;;7.60;73.50;;;;;;4985977;28;20399;-52
2021/04/26 06:01:02;;;;;;;11.10;3.25;;;8.40;69.90;;;;;;4990673;28;20088;-52
2021/04/26 06:03:27;;;;;;;9.57;3.03;;;8.90;67.60;;;;;;4978611;28;20107;-51
2021/04/26 06:05:53;;;;;;;9.60;3.03;;;8.80;66.50;;;;;;4989438;28;20057;-51
2021/04/26 06:08:19;;;;;;;8.70;2.92;;;8.80;67.40;;;;;;4987081;28;20030;-50
2021/04/26 06:10:45;;;;;;;8.07;2.45;;;8.60;67.70;;;;;;4985762;28;20137;-51
2021/04/26 06:13:11;;;;;;;9.80;3.20;;;8.40;69.20;;;;;;4987687;28;20571;-51
2021/04/26 06:15:37;;;;;;;9.80;2.58;;;8.40;69.40;;;;;;4984496;28;20038;-53
2021/04/26 06:18:07;;;;;;;9.10;2.80;;;8.80;68.60;;;;;;4985066;28;20061;-51
2021/04/26 06:20:32;;;;;;;8.23;2.67;;;9.10;67.30;;;;;;4993439;28;20220;-50
2021/04/26 06:22:59;;;;;;;11.18;2.78;;;9.10;67.20;;;;;;4990410;28;20566;-50
2021/04/26 06:25:24;;;;;;;10.48;2.90;;;8.70;67.30;;;;;;4987624;28;20046;-53
2021/04/26 06:27:50;;;;;;;9.15;2.72;;;8.40;68.60;;;;;;4989253;28;20050;-53
2021/04/26 06:30:16;;;;;;;7.40;2.75;;;8.10;70.60;;;;;;4986953;28;20035;-53
2021/04/26 06:32:42;;;;;;;6.50;2.72;;;7.90;71.60;;;;;;4988027;28;20108;-53
2021/04/26 06:35:07;;;;;;;11.88;2.92;;;7.80;71.80;;;;;;4988285;28;20456;-53
2021/04/26 06:37:33;;;;;;;9.18;2.80;;;7.80;72.90;;;;;;4986925;28;20048;-51
2021/04/26 06:39:59;;;;;;;8.15;2.50;;;7.70;73.40;;;;;;4987932;28;20092;-54
2021/04/26 06:42:25;;;;;;;13.00;2.70;;;7.60;73.40;;;;;;4987511;28;20441;-51
2021/04/26 06:44:50;;;;;;;5.72;2.30;;;7.70;72.70;;;;;;4988361;28;20066;-51
2021/04/26 06:47:16;;;;;;;9.07;2.30;;;7.70;73.60;;;;;;4983757;28;20464;-53
2021/04/26 06:49:42;;;;;;;8.43;2.40;;;7.70;73.30;;;;;;4987489;28;20045;-54
2021/04/26 06:52:07;;;;;;;8.85;2.65;;;7.80;73.00;;;;;;4984143;28;20050;-52
2021/04/26 06:54:33;;;;;;;5.15;1.85;;;8.00;72.20;;;;;;4988238;28;20152;-54
2021/04/26 06:56:59;;;;;;;6.00;2.20;;;8.00;71.90;;;;;;4986791;28;20505;-54
2021/04/26 06:59:24;;;;;;;4.70;1.83;;;8.00;71.50;;;;;;4988691;28;20053;-50
2021/04/26 07:01:50;;;;;;;9.77;2.38;;;8.10;70.70;;;;;;4954870;28;20043;-54
2021/04/26 07:04:16;;;;;;;7.70;2.00;;;8.20;69.70;;;;;;4988949;28;20057;-51
2021/04/26 07:06:41;;;;;;;10.25;2.03;;;8.30;69.30;;;;;;4990387;28;20042;-50
2021/04/26 07:09:07;;;;;;;6.75;2.40;;;8.40;68.00;;;;;;4989712;28;20775;-54
2021/04/26 07:11:33;;;;;;;7.43;2.00;;;8.50;66.40;;;;;;4989347;28;20515;-53
2021/04/26 07:13:58;;;;;;;5.05;1.90;;;8.50;66.90;;;;;;4994867;28;20118;-52
2021/04/26 07:16:24;;;;;;;3.47;1.60;;;8.60;63.40;;;;;;4989813;28;20074;-53
2021/04/26 07:18:50;;;;;;;8.23;2.00;;;8.50;63.90;;;;;;4988510;28;20487;-51
2021/04/26 07:21:15;;;;;;;6.07;1.88;;;8.50;65.00;;;;;;4994611;28;20105;-52
2021/04/26 07:23:41;;;;;;;3.80;1.50;;;8.60;64.90;;;;;;4991394;28;20591;-53
2021/04/26 07:26:07;;;;;;;7.75;1.67;;;8.70;64.80;;;;;;4990547;28;20046;-53
2021/04/26 07:28:32;;;;;;;4.38;1.30;;;8.80;61.60;;;;;;4986175;28;20070;-54
2021/04/26 07:30:58;;;;;;;6.75;1.77;;;8.80;61.50;;;;;;4991279;28;20046;-52
2021/04/26 07:33:24;;;;;;;5.57;1.65;;;8.90;58.70;;;;;;4987020;28;20133;-54
2021/04/26 07:35:50;;;;;;;7.10;1.52;;;8.90;60.20;;;;;;4990813;28;20048;-52
2021/04/26 07:38:15;;;;;;;4.78;1.60;;;8.80;60.50;;;;;;4990584;28;20047;-53
2021/04/26 07:40:41;;;;;;;6.40;1.85;;;8.90;59.70;;;;;;4990718;28;20046;-54
2021/04/26 07:43:07;;;;;;;4.40;1.73;;;9.00;57.60;;;;;;4990175;28;20057;-52
2021/04/26 07:45:33;;;;;;;9.63;2.10;;;9.00;59.50;;;;;;4997126;28;20070;-54
2021/04/26 07:47:59;;;;;;;7.13;1.30;;;9.00;60.40;;;;;;4989014;28;20069;-52
2021/04/26 07:50:25;;;;;;;5.95;1.50;;;9.00;59.10;;;;;;4989253;28;20042;-53
2021/04/26 07:52:51;;;;;;;3.92;1.60;;;9.10;59.20;;;;;;4987759;28;20095;-51
2021/04/26 07:55:17;;;;;;;5.63;1.65;;;9.20;57.30;;;;;;4990920;28;20103;-52
2021/04/26 07:57:43;;;;;;;5.68;1.50;;;9.20;58.90;;;;;;4989129;28;20050;-51
2021/04/26 08:00:10;;;;;;;5.00;1.50;;;9.30;59.50;;;;;;4990639;28;20559;-49
2021/04/26 08:02:36;;;;;;;8.68;1.80;;;9.30;57.50;;;;;;4986715;28;20105;-51
2021/04/26 08:05:02;;;;;;;7.38;1.90;;;9.40;57.80;;;;;;4983273;28;20074;-52
2021/04/26 08:07:27;;;;;;;9.05;1.90;;;9.40;57.80;;;;;;4986829;28;20125;-53
2021/04/26 08:09:53;;;;;;;6.80;1.50;;;9.50;58.50;;;;;;4990189;28;20561;-53
2021/04/26 08:12:20;;;;;;;6.53;1.90;;;9.60;55.10;;;;;;4987613;28;20384;-53
2021/04/26 08:14:46;;;;;;;5.72;1.77;;;9.60;56.00;;;;;;4989059;28;20038;-51
2021/04/26 08:17:12;;;;;;;8.52;2.88;;;9.80;54.80;;;;;;4987917;28;20089;-53
2021/04/26 08:19:38;;;;;;;6.25;1.67;;;9.80;55.40;;;;;;4971265;28;20046;-50
2021/04/26 08:22:04;;;;;;;3.58;1.75;;;9.80;57.30;;;;;;4989300;28;20042;-51
2021/04/26 08:24:30;;;;;;;5.53;1.60;;;10.00;53.70;;;;;;4986591;28;20042;-54
2021/04/26 08:26:56;;;;;;;3.45;1.52;;;10.10;52.60;;;;;;4982561;28;20095;-52
2021/04/26 08:29:22;;;;;;;4.93;1.60;;;10.20;54.30;;;;;;4988731;28;20041;-52
2021/04/26 08:31:49;;;;;;;7.10;1.90;;;10.30;50.10;;;;;;4988402;28;20121;-51
2021/04/26 08:34:15;;;;;;;4.35;1.90;;;10.40;51.90;;;;;;4987546;28;20077;-53
2021/04/26 08:36:40;;;;;;;4.80;1.80;;;10.50;51.70;;;;;;4988249;28;20074;-54
2021/04/26 08:39:06;;;;;;;3.15;1.70;;;10.50;51.80;;;;;;4981734;28;20046;-52
2021/04/26 08:41:33;;;;;;;7.07;1.95;;;10.70;51.10;;;;;;4976771;28;20046;-53
2021/04/26 08:43:58;;;;;;;5.57;1.73;;;10.70;51.20;;;;;;4983352;28;20026;-52
2021/04/26 08:46:24;;;;;;;5.65;1.77;;;10.90;44.60;;;;;;4989277;28;20026;-51
2021/04/26 08:48:50;;;;;;;13.13;2.00;;;10.90;48.70;;;;;;4988219;28;20493;-52
2021/04/26 08:51:15;;;;;;;4.63;1.60;;;10.90;48.60;;;;;;4988461;28;20096;-51
2021/04/26 08:53:42;;;;;;;8.10;2.17;;;10.90;50.10;;;;;;4988317;28;20054;-53
2021/04/26 08:56:09;;;;;;;8.10;2.13;;;11.00;50.30;;;;;;4988503;28;20425;-50
2021/04/26 08:58:35;;;;;;;8.20;2.10;;;11.00;51.40;;;;;;4989197;28;20034;-53
2021/04/26 09:01:00;;;;;;;5.53;1.95;;;11.10;47.30;;;;;;4988124;28;20043;-55
2021/04/26 09:03:34;;;;;;;7.38;2.00;;;11.10;49.30;;;;;;4989465;28;20045;-51
2021/04/26 09:06:00;;;;;;;5.07;2.08;;;11.20;50.20;;;;;;4988139;28;20038;-52
2021/04/26 09:08:27;;;;;;;6.85;2.08;;;11.20;49.40;;;;;;4988395;28;20034;-50
2021/04/26 09:11:00;;;;;;;6.68;1.90;;;11.20;49.60;;;;;;4987681;28;20121;-55
2021/04/26 09:13:39;;;;;;;6.78;2.20;;;11.40;49.20;;;;;;4984478;28;20046;-51
2021/04/26 09:16:22;;;;;;;15.60;2.00;;;11.50;49.00;;;;;;4988173;28;20073;-55
2021/04/26 09:18:56;;;;;;;5.93;1.98;;;11.50;48.00;;;;;;4986245;28;20437;-52
2021/04/26 09:21:29;;;;;;;5.70;2.20;;;11.50;49.00;;;;;;4986608;28;20046;-51
2021/04/26 09:24:24;;;;;;;8.35;2.00;;;11.60;47.30;;;;;;4989099;28;20082;-49
2021/04/26 09:27:02;;;;;;;6.88;1.83;;;11.50;47.20;;;;;;4983349;28;20647;-52
2021/04/26 09:29:31;;;;;;;12.38;2.50;;;11.50;48.50;;;;;;4985824;28;20050;-53
2021/04/26 09:32:04;;;;;;;6.38;1.67;;;11.50;48.30;;;;;;4977029;28;20068;-53
2021/04/26 09:34:43;;;;;;;7.50;1.85;;;11.50;49.20;;;;;;4975079;28;20050;-52
2021/04/26 09:37:27;;;;;;;7.82;2.10;;;11.70;49.60;;;;;;4983850;28;20041;-53
2021/04/26 09:39:59;;;;;;;6.30;2.00;;;11.90;46.10;;;;;;4987033;28;20091;-53
2021/04/26 09:42:46;;;;;;;5.88;1.92;;;11.90;46.40;;;;;;4986681;28;20091;-54
2021/04/26 09:45:33;;;;;;;8.20;1.83;;;11.90;47.70;;;;;;4987084;28;20626;-52
2021/04/26 09:48:18;;;;;;;7.65;1.90;;;11.90;47.90;;;;;;4988904;28;20487;-53
2021/04/26 09:50:54;;;;;;;5.95;1.92;;;12.00;47.00;;;;;;4974566;28;20060;-51
2021/04/26 09:53:21;;;;;;;7.05;1.88;;;12.00;46.60;;;;;;4989025;28;20046;-52
2021/04/26 09:55:47;;;;;;;11.15;2.00;;;12.10;46.40;;;;;;4990411;28;20047;-51
2021/04/26 09:58:13;;;;;;;5.45;1.98;;;12.10;46.00;;;;;;4989942;28;20513;-49
2021/04/26 10:00:43;;;;;;;7.32;1.95;;;11.90;46.30;;;;;;4989470;28;20043;-52
2021/04/26 10:03:09;;;;;;;7.97;2.00;;;11.90;47.60;;;;;;4989409;28;20066;-53
2021/04/26 10:05:35;;;;;;;8.30;2.10;;;11.90;48.20;;;;;;4987861;28;20077;-52
2021/04/26 10:08:01;;;;;;;5.40;2.05;;;11.90;48.80;;;;;;4988932;28;20122;-52
2021/04/26 10:10:27;;;;;;;6.88;2.10;;;11.70;48.30;;;;;;4989325;28;20129;-53
2021/04/26 10:12:52;;;;;;;8.73;2.47;;;11.70;48.40;;;;;;4989211;28;20057;-53
2021/04/26 10:15:28;;;;;;;8.13;2.00;;;11.60;47.90;;;;;;4978709;28;20560;-52
2021/04/26 10:17:56;;;;;;;6.60;2.10;;;11.70;48.40;;;;;;4986666;28;20053;-54
2021/04/26 10:20:40;;;;;;;4.60;1.70;;;11.80;47.80;;;;;;4988375;28;20042;-51
2021/04/26 10:23:39;;;;;;;9.82;2.25;;;11.70;46.90;;;;;;4987572;28;20087;-54
2021/04/26 10:26:06;;;;;;;6.78;1.77;;;11.70;46.50;;;;;;4989216;28;20042;-53
2021/04/26 10:28:37;;;;;;;4.47;1.70;;;11.90;42.00;;;;;;4989084;28;20042;-53
2021/04/26 10:31:13;;;;;;;6.00;2.10;;;11.70;44.20;;;;;;4987740;28;20070;-52
2021/04/26 10:33:58;;;;;;;4.88;1.60;;;11.60;46.00;;;;;;4974184;28;20034;-52
2021/04/26 10:36:40;;;;;;;6.10;1.75;;;11.70;46.20;;;;;;4989238;28;20038;-52
2021/04/26 10:39:25;;;;;;;7.15;1.80;;;11.80;44.90;;;;;;4974951;28;20058;-52
2021/04/26 10:41:56;;;;;;;7.05;1.90;;;11.90;44.50;;;;;;4988616;28;20055;-52
2021/04/26 10:44:41;;;;;;;4.65;2.00;;;11.90;45.40;;;;;;4988868;28;20038;-53
2021/04/26 10:47:16;;;;;;;5.38;1.95;;;12.10;45.80;;;;;;4988908;28;20053;-53
2021/04/26 10:49:46;;;;;;;5.15;1.92;;;12.30;41.10;;;;;;4988500;28;20137;-50
2021/04/26 10:52:29;;;;;;;7.57;1.85;;;12.40;41.30;;;;;;4988845;28;20072;-53
2021/04/26 10:55:12;;;;;;;6.05;1.58;;;12.20;42.70;;;;;;4976107;28;20126;-52
2021/04/26 10:57:41;;;;;;;4.75;1.88;;;12.20;41.70;;;;;;4988138;28;20046;-52
2021/04/26 11:00:30;;;;;;;8.90;2.08;;;12.20;43.10;;;;;;4988816;28;20041;-51
2021/04/26 11:03:19;;;;;;;3.17;1.80;;;12.20;44.20;;;;;;4988458;28;20046;-52
2021/04/26 11:05:47;;;;;;;5.15;2.08;;;12.30;43.60;;;;;;4988932;28;20566;-53
2021/04/26 11:08:39;;;;;;;5.07;1.92;;;12.40;43.80;;;;;;4988128;28;20125;-49
2021/04/26 11:11:29;;;;;;;;;;;12.50;41.60;;;;;;4987635;28;20406;-54
2021/04/26 11:14:02;;;;;;;3.85;1.70;;;12.40;40.70;;;;;;4988388;28;19922;-50
2021/04/26 11:16:39;;;;;;;6.90;2.00;;;12.40;41.40;;;;;;4986654;28;20414;-51
2021/04/26 11:19:10;;;;;;;4.30;1.92;;;12.30;41.40;;;;;;4988756;28;20042;-49
2021/04/26 11:21:44;;;;;;;4.28;1.75;;;12.40;38.30;;;;;;4986750;28;20052;-52
2021/04/26 11:24:24;;;;;;;8.45;1.88;;;12.40;38.90;;;;;;4999260;28;20049;-51
2021/04/26 11:27:08;;;;;;;7.05;2.10;;;12.40;38.50;;;;;;4986552;28;20038;-51
2021/04/26 11:29:41;;;;;;;5.53;1.95;;;12.50;40.90;;;;;;4999324;28;20100;-51
2021/04/26 11:32:07;;;;;;;6.90;2.00;;;12.60;40.00;;;;;;4987643;28;20409;-50
2021/04/26 11:34:48;;;;;;;6.53;1.80;;;12.60;39.70;;;;;;4988761;28;20046;-51
2021/04/26 11:37:13;;;;;;;6.28;2.03;;;12.70;39.40;;;;;;4987565;28;20040;-52
2021/04/26 11:39:41;;;;;;;4.82;1.77;;;12.70;40.20;;;;;;4987902;28;20426;-53
2021/04/26 11:42:08;;;;;;;4.53;2.00;;;12.80;40.80;;;;;;4987112;28;20058;-52
2021/04/26 11:44:37;;;;;;;6.70;2.17;;;13.00;39.10;;;;;;4970237;28;20089;-50
2021/04/26 11:47:08;;;;;;;6.13;2.25;;;12.90;38.50;;;;;;4987623;28;20046;-53
2021/04/26 11:49:59;;;;;;;4.90;2.03;;;12.90;38.80;;;;;;4973532;28;20039;-51
2021/04/26 11:52:27;;;;;;;5.50;2.00;;;12.90;38.70;;;;;;4992237;28;20042;-50
2021/04/26 11:55:02;;;;;;;5.93;1.85;;;12.90;38.20;;;;;;4983727;28;20046;-53
2021/04/26 11:57:30;;;;;;;7.00;2.38;;;12.80;38.00;;;;;;5039321;28;20111;-49
2021/04/26 12:00:03;;;;;;;8.77;2.38;;;12.80;38.60;;;;;;5022043;28;20059;-49
2021/04/26 12:02:41;;;;;;;4.45;2.22;;;12.80;37.90;;;;;;5006943;28;20602;-53
2021/04/26 12:05:15;;;;;;;4.43;2.20;;;12.80;37.50;;;;;;4989869;28;20137;-50
2021/04/26 12:07:42;;;;;;;6.47;2.05;;;12.70;39.40;;;;;;4989697;28;20501;-50
2021/04/26 12:10:19;;;;;;;4.20;1.92;;;12.80;39.20;;;;;;4981687;28;20053;-49
2021/04/26 12:12:45;;;;;;;3.83;2.13;;;12.90;37.90;;;;;;4994601;28;20445;-51
2021/04/26 12:15:21;;;;;;;4.35;1.83;;;13.00;36.70;;;;;;5038045;28;20109;-49
2021/04/26 12:17:51;;;;;;;5.47;2.15;;;12.90;37.60;;;;;;4988893;28;20038;-52
2021/04/26 12:20:21;;;;;;;6.25;1.98;;;12.90;38.30;;;;;;4980035;28;20506;-49
2021/04/26 12:22:49;;;;;;;6.97;2.00;;;12.90;38.90;;;;;;4991267;28;20095;-54
2021/04/26 12:25:16;;;;;;;6.00;2.08;;;12.90;38.30;;;;;;4990928;28;20494;-50
2021/04/26 12:27:42;;;;;;;5.38;2.03;;;13.00;38.40;;;;;;4989152;28;20409;-49
2021/04/26 12:30:11;;;;;;;5.55;2.22;;;13.00;38.50;;;;;;4988699;28;20163;-50
2021/04/26 12:32:37;;;;;;;2.42;1.70;;;12.90;39.00;;;;;;4978971;28;20133;-52
2021/04/26 12:35:06;;;;;;;7.05;2.00;;;13.00;37.70;;;;;;4991079;28;20485;-50
2021/04/26 12:37:34;;;;;;;4.82;1.70;;;12.90;37.70;;;;;;5039438;28;20039;-49
2021/04/26 12:40:19;;;;;;;5.90;1.92;;;13.00;37.20;;;;;;4983474;28;20072;-49
2021/04/26 12:42:48;;;;;;;5.00;2.03;;;13.10;36.90;;;;;;4978763;28;20049;-52
2021/04/26 12:45:22;;;;;;;6.78;2.10;;;13.20;38.50;;;;;;5047916;28;20036;-55
2021/04/26 12:47:51;;;;;;;3.83;1.73;;;13.30;37.70;;;;;;4990788;28;20046;-50
2021/04/26 12:50:23;;;;;;;7.90;1.92;;;13.60;36.00;;;;;;4990190;28;20064;-49
2021/04/26 12:53:31;;;;;;;4.38;1.90;;;13.70;36.10;;;;;;5003849;28;20102;-49
2021/04/26 12:56:00;;;;;;;5.63;1.90;;;13.70;33.50;;;;;;4979394;28;20043;-50
2021/04/26 12:58:34;;;;;;;3.58;1.77;;;13.50;35.90;;;;;;4980608;28;20127;-52
2021/04/26 13:01:11;;;;;;;5.60;2.10;;;13.50;36.20;;;;;;4990256;28;20057;-52